Time;durP1;ratioP1;P1;durP2;ratioP2;P2;SDS_P1;SDS_P2;PMS_P1;PMS_P2;Temp;Humidity;BMP_temperature;BMP_pressure;BME280_temperature;BME280_humidity;BME280_pressure;Samples;Min_cycle;Max_cycle;Signal;HPM_P1;HPM_P2
2021/09/14 00:00:36;;;;;;;1.88;1.75;;;20.90;77.80;;;;;;4982852;28;20026;-79
2021/09/14 00:03:01;;;;;;;2.67;1.88;;;21.00;77.60;;;;;;4982178;28;20125;-79
2021/09/14 00:05:27;;;;;;;2.30;2.00;;;21.00;77.90;;;;;;4983236;28;20042;-80
2021/09/14 00:07:53;;;;;;;2.28;1.65;;;21.00;77.70;;;;;;4977888;28;20029;-79
2021/09/14 00:10:19;;;;;;;1.58;1.48;;;21.00;77.40;;;;;;4983508;28;20022;-78
2021/09/14 00:12:45;;;;;;;2.13;1.45;;;21.00;77.20;;;;;;4982805;28;20477;-79
2021/09/14 00:15:12;;;;;;;1.55;1.40;;;20.90;77.30;;;;;;4981975;28;20073;-80
2021/09/14 00:17:38;;;;;;;1.70;1.60;;;21.00;77.00;;;;;;4981580;28;20126;-78
2021/09/14 00:20:05;;;;;;;1.58;1.48;;;20.90;76.90;;;;;;4982382;28;20062;-79
2021/09/14 00:22:31;;;;;;;1.92;1.58;;;20.90;76.80;;;;;;4983597;28;20042;-78
2021/09/14 00:24:57;;;;;;;2.50;1.80;;;20.90;77.20;;;;;;4982478;28;20034;-77
2021/09/14 00:27:23;;;;;;;2.47;1.25;;;20.90;76.90;;;;;;4980027;28;20532;-76
2021/09/14 00:29:49;;;;;;;1.35;1.30;;;20.90;77.10;;;;;;4978817;28;20077;-77
2021/09/14 00:32:15;;;;;;;1.58;1.48;;;20.90;77.20;;;;;;4985535;28;20080;-76
2021/09/14 00:34:41;;;;;;;2.80;1.35;;;20.90;76.80;;;;;;4965946;28;20023;-76
2021/09/14 00:37:07;;;;;;;3.15;1.60;;;20.90;76.90;;;;;;4982047;28;20034;-76
2021/09/14 00:39:33;;;;;;;3.05;1.40;;;21.00;77.00;;;;;;4982405;28;20034;-77
2021/09/14 00:41:59;;;;;;;1.42;1.30;;;20.90;77.10;;;;;;4983634;28;20070;-77
2021/09/14 00:44:25;;;;;;;2.13;1.55;;;20.90;77.30;;;;;;4981809;28;20037;-78
2021/09/14 00:46:51;;;;;;;1.88;1.45;;;20.90;78.00;;;;;;4982036;28;20045;-78
2021/09/14 00:49:17;;;;;;;2.08;1.40;;;20.90;78.20;;;;;;4969391;28;20034;-78
2021/09/14 00:51:43;;;;;;;1.63;1.48;;;20.90;78.10;;;;;;4980752;28;20037;-78
2021/09/14 00:54:16;;;;;;;1.40;1.30;;;20.90;78.20;;;;;;4980660;28;20382;-78
2021/09/14 00:56:43;;;;;;;3.55;1.42;;;21.00;78.60;;;;;;4978649;28;20507;-77
2021/09/14 00:59:10;;;;;;;2.20;1.70;;;21.00;78.50;;;;;;4981647;28;20037;-77
2021/09/14 01:01:36;;;;;;;1.50;1.40;;;21.00;78.30;;;;;;4985647;28;20049;-77
2021/09/14 01:04:04;;;;;;;2.13;1.50;;;21.00;78.00;;;;;;4980770;28;20034;-79
2021/09/14 01:06:33;;;;;;;2.13;1.55;;;21.00;77.80;;;;;;4981491;28;20401;-78
2021/09/14 01:09:01;;;;;;;1.50;1.40;;;21.00;78.50;;;;;;4980371;28;20396;-77
2021/09/14 01:11:28;;;;;;;2.88;1.40;;;21.00;78.70;;;;;;4985511;28;20030;-77
2021/09/14 01:14:01;;;;;;;1.90;1.70;;;21.00;79.10;;;;;;4982423;28;20037;-77
2021/09/14 01:16:30;;;;;;;1.58;1.40;;;21.00;79.50;;;;;;4964849;28;20030;-77
2021/09/14 01:18:56;;;;;;;2.67;1.30;;;21.00;79.40;;;;;;4983172;28;20222;-77
2021/09/14 01:21:22;;;;;;;1.42;1.27;;;21.00;79.10;;;;;;4982410;28;20061;-77
2021/09/14 01:23:49;;;;;;;1.52;1.42;;;21.00;78.60;;;;;;4980279;28;20129;-77
2021/09/14 01:26:16;;;;;;;1.30;1.20;;;21.10;79.10;;;;;;4981737;28;20057;-77
2021/09/14 01:28:42;;;;;;;1.77;1.00;;;21.00;78.70;;;;;;4983896;28;20034;-77
2021/09/14 01:31:07;;;;;;;1.52;1.30;;;21.10;78.10;;;;;;4987895;28;20036;-77
2021/09/14 01:33:33;;;;;;;1.55;0.95;;;21.00;77.60;;;;;;4983087;28;20037;-77
2021/09/14 01:36:00;;;;;;;1.30;1.20;;;21.00;76.40;;;;;;4986106;28;20108;-77
2021/09/14 01:38:26;;;;;;;1.40;1.10;;;21.00;76.20;;;;;;4983613;28;20039;-77
2021/09/14 01:40:54;;;;;;;0.90;0.90;;;20.90;76.20;;;;;;4981937;28;20045;-78
2021/09/14 01:43:20;;;;;;;1.48;1.10;;;20.90;75.40;;;;;;4988009;28;20093;-77
2021/09/14 01:45:48;;;;;;;1.10;1.00;;;20.90;75.20;;;;;;5000475;28;20085;-77
2021/09/14 01:48:22;;;;;;;1.17;1.08;;;20.80;75.20;;;;;;4972596;28;20042;-76
2021/09/14 01:50:48;;;;;;;1.58;1.00;;;20.80;75.30;;;;;;4979938;28;20377;-78
2021/09/14 01:53:15;;;;;;;1.60;0.80;;;20.80;75.00;;;;;;4981115;28;20034;-78
2021/09/14 01:55:41;;;;;;;1.15;1.05;;;20.80;74.80;;;;;;4980066;28;20429;-77
2021/09/14 01:58:11;;;;;;;1.20;1.10;;;20.70;74.30;;;;;;4981959;28;20037;-77
2021/09/14 02:00:44;;;;;;;1.50;0.80;;;20.70;74.00;;;;;;4965618;28;20034;-77
2021/09/14 03:00:40;;;;;;;0.90;0.80;;;19.70;69.30;;;;;;4965470;28;20038;-78
2021/09/14 03:03:05;;;;;;;0.82;0.70;;;19.70;69.50;;;;;;4983336;28;20515;-79
2021/09/14 03:05:33;;;;;;;2.15;0.75;;;19.70;69.50;;;;;;4971150;28;20519;-79
2021/09/14 03:08:00;;;;;;;2.25;0.70;;;19.60;70.00;;;;;;4971362;28;20103;-78
2021/09/14 03:10:29;;;;;;;5.15;0.90;;;19.60;70.10;;;;;;4998359;28;20382;-79
2021/09/14 03:12:56;;;;;;;0.70;0.70;;;19.60;70.20;;;;;;4982092;28;20037;-78
2021/09/14 03:15:22;;;;;;;2.42;0.73;;;19.60;69.60;;;;;;4982064;28;20108;-77
2021/09/14 03:17:48;;;;;;;3.05;0.60;;;19.60;69.30;;;;;;4978821;28;20031;-78
2021/09/14 03:20:14;;;;;;;0.70;0.70;;;19.60;69.80;;;;;;4981701;28;20371;-79
2021/09/14 03:22:40;;;;;;;0.75;0.60;;;19.60;69.00;;;;;;4974097;28;20035;-78
2021/09/14 03:25:08;;;;;;;2.35;0.77;;;19.60;69.00;;;;;;4981386;28;20022;-78
2021/09/14 03:27:34;;;;;;;4.65;1.10;;;19.60;68.90;;;;;;4979669;28;20034;-78
2021/09/14 03:30:01;;;;;;;1.65;0.60;;;19.60;68.60;;;;;;4991301;28;20034;-78
2021/09/14 03:32:31;;;;;;;1.70;0.60;;;19.50;68.70;;;;;;4984529;28;20030;-78
2021/09/14 03:34:57;;;;;;;2.13;0.70;;;19.50;68.80;;;;;;4983210;28;20436;-78
2021/09/14 03:37:24;;;;;;;1.10;0.77;;;19.50;68.60;;;;;;4978128;28;20062;-81
2021/09/14 03:39:50;;;;;;;1.10;0.73;;;19.50;68.80;;;;;;4980517;28;20034;-79
2021/09/14 03:42:20;;;;;;;1.70;0.68;;;19.50;68.80;;;;;;4978210;28;20035;-79
2021/09/14 03:44:46;;;;;;;0.90;0.65;;;19.50;68.90;;;;;;4985989;28;20084;-81
2021/09/14 03:47:12;;;;;;;1.45;0.60;;;19.50;68.80;;;;;;4990882;28;20042;-81
2021/09/14 03:49:39;;;;;;;1.58;0.50;;;19.50;68.70;;;;;;4980044;28;20074;-79
2021/09/14 03:52:05;;;;;;;1.00;0.60;;;19.50;68.60;;;;;;4996631;28;20601;-80
2021/09/14 03:54:31;;;;;;;1.80;0.90;;;19.50;68.60;;;;;;4984731;28;20038;-82
2021/09/14 03:56:58;;;;;;;3.30;0.90;;;19.50;68.80;;;;;;4982088;28;20433;-79
2021/09/14 03:59:25;;;;;;;0.60;0.60;;;19.50;68.80;;;;;;4980874;28;20038;-83
2021/09/14 04:01:55;;;;;;;0.63;0.63;;;19.40;68.70;;;;;;4979477;28;20409;-80
2021/09/14 04:04:39;;;;;;;4.38;0.63;;;19.40;68.80;;;;;;4989778;28;20125;-80
2021/09/14 04:09:37;;;;;;;1.17;0.60;;;19.40;68.80;;;;;;4983512;28;20030;-82
2021/09/14 04:12:10;;;;;;;2.72;0.57;;;19.40;68.70;;;;;;4966732;28;20093;-83
2021/09/14 04:14:36;;;;;;;0.65;0.63;;;19.40;68.70;;;;;;4977876;28;20677;-82
2021/09/14 04:17:03;;;;;;;0.57;0.50;;;19.40;68.70;;;;;;4977506;28;20045;-82
2021/09/14 04:19:30;;;;;;;2.10;0.70;;;19.40;68.80;;;;;;4979573;28;20039;-82
2021/09/14 04:21:58;;;;;;;1.85;0.60;;;19.40;68.90;;;;;;4979028;28;20442;-82
2021/09/14 04:24:30;;;;;;;0.63;0.60;;;19.40;68.80;;;;;;4980624;28;20031;-83
2021/09/14 04:26:57;;;;;;;3.38;0.60;;;19.40;68.80;;;;;;4980532;28;20088;-80
2021/09/14 04:29:23;;;;;;;0.85;0.70;;;19.40;69.10;;;;;;4984099;28;20050;-80
2021/09/14 04:31:49;;;;;;;1.55;0.77;;;19.40;69.00;;;;;;4978372;28;20051;-83
2021/09/14 04:34:15;;;;;;;1.13;0.75;;;19.40;68.90;;;;;;4980154;28;20027;-83
2021/09/14 04:36:43;;;;;;;1.33;0.57;;;19.40;68.80;;;;;;4981181;28;20034;-83
2021/09/14 04:39:12;;;;;;;2.05;0.65;;;19.40;68.80;;;;;;4978625;28;20101;-80
2021/09/14 04:41:39;;;;;;;1.38;0.50;;;19.40;68.70;;;;;;4984478;28;20133;-80
2021/09/14 04:44:06;;;;;;;0.70;0.50;;;19.40;68.60;;;;;;4980081;28;20121;-80
2021/09/14 04:46:32;;;;;;;0.90;0.57;;;19.40;68.40;;;;;;4999391;28;20038;-80
2021/09/14 04:48:58;;;;;;;0.40;0.40;;;19.40;68.40;;;;;;4988829;28;20129;-80
2021/09/14 04:51:24;;;;;;;0.65;0.60;;;19.40;68.20;;;;;;5000729;28;20133;-81
2021/09/14 04:53:51;;;;;;;1.92;0.88;;;19.40;68.50;;;;;;4982132;28;20508;-80
2021/09/14 04:56:18;;;;;;;1.85;0.70;;;19.40;68.10;;;;;;4983385;28;20078;-81
2021/09/14 04:58:46;;;;;;;2.53;1.05;;;19.30;68.00;;;;;;4983420;28;20030;-83
2021/09/14 05:01:18;;;;;;;2.83;1.17;;;19.30;67.50;;;;;;4965035;28;20030;-81
2021/09/14 05:03:44;;;;;;;6.90;1.02;;;19.30;67.80;;;;;;4987471;28;20097;-82
2021/09/14 05:06:10;;;;;;;4.78;1.13;;;19.30;68.60;;;;;;4992840;28;20035;-82
2021/09/14 05:08:36;;;;;;;1.77;1.10;;;19.30;69.40;;;;;;4985428;28;20113;-81
2021/09/14 05:11:05;;;;;;;5.15;1.55;;;19.40;69.40;;;;;;4994550;28;20026;-82
2021/09/14 05:13:33;;;;;;;4.05;1.73;;;19.40;69.50;;;;;;4994885;28;20026;-81
2021/09/14 05:15:59;;;;;;;4.45;1.95;;;19.40;70.00;;;;;;4995024;28;20034;-81
2021/09/14 05:18:47;;;;;;;4.88;1.67;;;19.50;70.10;;;;;;4994326;28;20097;-80
2021/09/14 05:21:15;;;;;;;3.83;1.77;;;19.50;70.00;;;;;;4994842;28;20044;-79
2021/09/14 05:23:41;;;;;;;6.10;1.73;;;19.50;69.70;;;;;;4995983;28;20034;-79
2021/09/14 05:26:07;;;;;;;6.72;2.03;;;19.50;69.80;;;;;;4978501;28;20418;-79
2021/09/14 05:28:35;;;;;;;5.82;2.50;;;19.60;70.00;;;;;;4993186;28;20039;-78
2021/09/14 05:31:03;;;;;;;7.55;5.15;;;19.70;70.40;;;;;;4995176;28;20038;-80
2021/09/14 05:33:30;;;;;;;12.70;11.45;;;19.80;71.50;;;;;;4975950;28;20038;-78
2021/09/14 05:35:56;;;;;;;7.30;6.07;;;19.90;73.70;;;;;;4987177;28;20070;-78
2021/09/14 05:38:25;;;;;;;6.90;3.72;;;20.10;74.50;;;;;;4983931;28;20481;-77
2021/09/14 05:40:56;;;;;;;8.63;3.40;;;20.30;73.40;;;;;;4992921;28;20042;-77
2021/09/14 05:43:27;;;;;;;7.63;2.65;;;20.50;72.60;;;;;;4982380;28;20505;-78
2021/09/14 05:45:54;;;;;;;7.50;3.05;;;20.50;71.20;;;;;;4980578;28;20473;-78
2021/09/14 05:48:24;;;;;;;8.30;2.92;;;20.60;70.90;;;;;;4983083;28;20026;-78
2021/09/14 05:50:50;;;;;;;8.05;2.95;;;20.50;70.80;;;;;;4985164;28;20061;-78
2021/09/14 05:53:16;;;;;;;5.93;2.67;;;20.50;71.30;;;;;;4971481;28;20043;-78
2021/09/14 05:55:42;;;;;;;5.35;2.33;;;20.50;70.90;;;;;;4980820;28;20046;-78
2021/09/14 05:58:10;;;;;;;4.38;2.60;;;20.50;70.90;;;;;;4999282;28;20045;-78
2021/09/14 06:00:38;;;;;;;5.78;2.05;;;20.50;70.60;;;;;;4982774;28;20030;-78
2021/09/14 06:03:04;;;;;;;5.07;1.80;;;20.60;70.50;;;;;;4987957;28;20413;-78
2021/09/14 06:05:33;;;;;;;4.07;1.80;;;20.50;70.00;;;;;;4966406;28;20030;-78
2021/09/14 06:08:00;;;;;;;4.55;1.90;;;20.50;70.20;;;;;;4981226;28;20026;-78
2021/09/14 06:10:27;;;;;;;6.63;1.85;;;20.70;70.10;;;;;;4983040;28;20035;-78
2021/09/14 06:13:05;;;;;;;3.00;1.83;;;20.80;70.20;;;;;;4981520;28;20154;-78
2021/09/14 06:15:31;;;;;;;6.60;1.70;;;20.80;69.10;;;;;;4980722;28;20489;-78
2021/09/14 06:17:57;;;;;;;7.22;1.70;;;20.80;68.80;;;;;;4987123;28;20038;-77
2021/09/14 06:20:26;;;;;;;2.75;1.13;;;20.80;68.60;;;;;;4981167;28;20089;-78
2021/09/14 06:22:52;;;;;;;4.28;2.28;;;20.80;68.50;;;;;;4980541;28;20030;-78
2021/09/14 06:25:18;;;;;;;2.53;1.50;;;20.80;68.90;;;;;;4987104;28;21333;-77
2021/09/14 06:27:44;;;;;;;3.65;1.45;;;20.80;69.70;;;;;;4982094;28;20493;-78
2021/09/14 06:30:11;;;;;;;4.43;1.60;;;20.80;70.10;;;;;;4980870;28;20125;-78
2021/09/14 06:32:37;;;;;;;4.22;1.23;;;20.80;69.90;;;;;;4982708;28;20551;-77
2021/09/14 06:35:03;;;;;;;3.08;1.10;;;20.80;70.50;;;;;;4985625;28;20408;-78
2021/09/14 06:37:39;;;;;;;2.65;1.30;;;20.80;69.40;;;;;;4999727;28;20045;-77
2021/09/14 06:40:06;;;;;;;5.22;1.23;;;20.90;69.20;;;;;;4971429;28;20385;-78
2021/09/14 06:42:33;;;;;;;2.95;1.00;;;20.90;68.90;;;;;;4979706;28;20766;-78
2021/09/14 06:45:14;;;;;;;3.13;1.10;;;21.00;69.70;;;;;;4978753;28;20034;-78
2021/09/14 06:47:55;;;;;;;1.23;0.90;;;21.00;68.90;;;;;;4982885;28;21429;-77
2021/09/14 06:50:22;;;;;;;3.28;1.20;;;21.00;68.90;;;;;;4983162;28;20054;-78
2021/09/14 06:52:49;;;;;;;1.70;1.35;;;21.00;68.40;;;;;;4980531;28;20046;-78
2021/09/14 06:55:16;;;;;;;1.45;0.90;;;21.10;68.30;;;;;;4984093;28;20058;-78
2021/09/14 06:57:41;;;;;;;4.28;1.20;;;21.00;68.30;;;;;;4982711;28;20365;-78
2021/09/14 07:00:08;;;;;;;2.78;1.15;;;21.10;68.20;;;;;;4983533;28;20035;-78
2021/09/14 07:02:34;;;;;;;2.90;1.02;;;21.10;68.20;;;;;;4985597;28;20039;-78
2021/09/14 07:05:00;;;;;;;2.72;1.02;;;21.10;67.80;;;;;;4982821;28;20038;-78
2021/09/14 07:07:26;;;;;;;1.45;1.10;;;21.10;68.00;;;;;;4988581;28;20035;-78
2021/09/14 07:09:52;;;;;;;2.35;1.00;;;21.10;67.50;;;;;;4989160;28;20045;-77
2021/09/14 07:12:20;;;;;;;2.40;1.02;;;21.00;67.30;;;;;;4994041;28;20117;-78
2021/09/14 07:14:45;;;;;;;3.22;0.90;;;21.00;67.40;;;;;;4994111;28;20034;-77
2021/09/14 07:17:11;;;;;;;3.25;1.05;;;21.10;68.10;;;;;;4993908;28;20041;-77
2021/09/14 07:19:37;;;;;;;2.95;1.08;;;21.10;67.60;;;;;;4992210;28;20042;-77
2021/09/14 07:22:03;;;;;;;1.70;0.70;;;21.10;67.20;;;;;;4994030;28;20042;-77
2021/09/14 07:24:29;;;;;;;1.67;0.80;;;21.10;66.00;;;;;;4993796;28;20481;-77
2021/09/14 07:26:55;;;;;;;4.50;1.02;;;21.10;66.20;;;;;;4993789;28;20436;-77
2021/09/14 07:29:21;;;;;;;1.90;0.88;;;21.20;66.90;;;;;;4990775;28;20452;-77
2021/09/14 07:31:48;;;;;;;1.40;0.65;;;21.20;66.40;;;;;;4993798;28;20033;-77
2021/09/14 07:34:14;;;;;;;1.13;0.65;;;21.30;65.80;;;;;;4992523;28;20489;-77
2021/09/14 07:36:40;;;;;;;1.63;0.80;;;21.30;65.70;;;;;;4992444;28;20041;-77
2021/09/14 07:39:06;;;;;;;0.93;0.60;;;21.40;65.60;;;;;;4990621;28;20038;-77
2021/09/14 07:41:32;;;;;;;1.48;0.60;;;21.40;65.00;;;;;;4993621;28;20042;-78
2021/09/14 07:43:57;;;;;;;1.10;0.63;;;21.50;65.50;;;;;;4993482;28;20030;-77
2021/09/14 07:46:23;;;;;;;3.22;0.90;;;21.50;65.10;;;;;;4993626;28;20034;-77
2021/09/14 07:48:49;;;;;;;1.88;0.75;;;21.50;63.60;;;;;;4985272;28;20029;-77
2021/09/14 07:51:15;;;;;;;1.08;0.70;;;21.50;63.60;;;;;;4983154;28;20030;-77
2021/09/14 07:53:41;;;;;;;2.88;0.90;;;21.50;63.70;;;;;;4983163;28;20121;-77
2021/09/14 07:56:07;;;;;;;1.02;0.68;;;21.50;64.10;;;;;;4983288;28;20046;-76
2021/09/14 07:58:33;;;;;;;1.67;0.80;;;21.50;64.20;;;;;;4982260;28;20038;-76
2021/09/14 08:00:59;;;;;;;4.78;0.77;;;21.50;64.10;;;;;;4981252;28;20146;-77
2021/09/14 08:03:24;;;;;;;2.80;0.77;;;21.50;63.50;;;;;;4982100;28;20030;-77
2021/09/14 08:05:50;;;;;;;2.53;0.75;;;21.50;63.10;;;;;;4981924;28;20070;-77
2021/09/14 08:08:16;;;;;;;1.02;0.50;;;21.50;63.30;;;;;;4984264;28;20776;-77
2021/09/14 08:10:43;;;;;;;2.05;0.90;;;21.50;63.40;;;;;;4982781;28;20030;-77
2021/09/14 08:13:08;;;;;;;1.52;0.90;;;21.40;62.90;;;;;;4982694;28;20457;-77
2021/09/14 08:15:34;;;;;;;1.55;0.75;;;21.40;62.80;;;;;;4992941;28;20080;-77
2021/09/14 08:18:00;;;;;;;1.00;0.80;;;21.30;62.60;;;;;;4993152;28;20033;-77
2021/09/14 08:20:26;;;;;;;3.40;0.50;;;21.30;62.90;;;;;;4992544;28;20034;-77
2021/09/14 08:22:53;;;;;;;7.45;1.55;;;21.30;62.90;;;;;;4988981;28;20022;-77
2021/09/14 08:25:19;;;;;;;1.50;0.70;;;21.20;62.70;;;;;;4992467;28;20157;-77
2021/09/14 08:27:45;;;;;;;3.47;0.80;;;21.20;62.40;;;;;;4991662;28;20397;-77
2021/09/14 08:30:14;;;;;;;2.72;0.90;;;21.20;62.90;;;;;;4991718;28;20034;-77
2021/09/14 08:32:40;;;;;;;1.85;0.65;;;21.20;62.70;;;;;;4991309;28;20022;-77
2021/09/14 08:35:08;;;;;;;2.85;0.88;;;21.20;62.60;;;;;;4983019;28;20038;-77
2021/09/14 08:37:33;;;;;;;3.33;0.70;;;21.20;62.50;;;;;;4981867;28;20124;-77
2021/09/14 08:39:59;;;;;;;0.93;0.70;;;21.10;62.10;;;;;;4981984;28;20859;-77
2021/09/14 08:42:26;;;;;;;2.28;0.85;;;21.10;62.20;;;;;;4981868;28;20444;-76
2021/09/14 08:44:52;;;;;;;1.83;0.60;;;21.10;62.20;;;;;;4982423;28;20132;-77
2021/09/14 08:47:20;;;;;;;2.35;0.70;;;21.10;62.30;;;;;;4982228;28;20118;-76
2021/09/14 08:49:46;;;;;;;6.20;0.60;;;21.00;62.40;;;;;;4980991;28;20026;-77
2021/09/14 08:52:15;;;;;;;1.50;0.60;;;21.00;62.30;;;;;;4981345;28;20100;-76
2021/09/14 08:54:41;;;;;;;1.70;0.65;;;21.10;61.20;;;;;;4980732;28;20181;-80
2021/09/14 08:57:07;;;;;;;2.38;0.60;;;21.00;60.30;;;;;;4988283;28;20045;-80
2021/09/14 08:59:34;;;;;;;2.38;0.63;;;20.90;59.30;;;;;;4992084;28;20043;-80
2021/09/14 09:02:01;;;;;;;2.58;0.60;;;20.80;58.50;;;;;;4992052;28;20100;-80
2021/09/14 09:04:27;;;;;;;0.60;0.60;;;20.70;58.10;;;;;;4988966;28;20049;-80
2021/09/14 09:06:53;;;;;;;3.95;0.60;;;20.70;58.10;;;;;;4992127;28;20038;-80
2021/09/14 09:09:21;;;;;;;1.80;0.70;;;20.70;58.40;;;;;;4992054;28;20409;-80
2021/09/14 09:12:00;;;;;;;1.70;0.70;;;20.60;57.20;;;;;;4992081;28;20041;-80
2021/09/14 09:14:43;;;;;;;3.88;0.60;;;20.60;57.00;;;;;;4989566;28;20397;-80
2021/09/14 09:17:17;;;;;;;2.30;0.65;;;20.50;56.30;;;;;;4990665;28;20042;-80
2021/09/14 09:19:57;;;;;;;3.53;0.40;;;20.40;56.60;;;;;;4974184;28;20101;-80
2021/09/14 09:22:27;;;;;;;0.70;0.35;;;20.50;57.10;;;;;;4990161;28;20417;-80
2021/09/14 09:24:54;;;;;;;2.78;0.50;;;20.40;56.90;;;;;;4981092;28;20409;-80
2021/09/14 09:27:25;;;;;;;2.08;0.47;;;20.30;56.10;;;;;;4979205;28;20200;-79
2021/09/14 09:30:06;;;;;;;2.60;0.60;;;20.30;55.40;;;;;;4972794;28;20092;-80
2021/09/14 09:32:46;;;;;;;1.67;0.60;;;20.20;55.10;;;;;;4981339;28;20468;-79
2021/09/14 09:35:23;;;;;;;18.15;12.02;;;20.10;55.10;;;;;;4985240;28;20058;-81
2021/09/14 09:37:53;;;;;;;6.50;4.40;;;20.10;54.50;;;;;;4988829;28;20041;-80
2021/09/14 09:40:26;;;;;;;4.85;3.50;;;20.10;54.70;;;;;;4978398;28;20133;-80
2021/09/14 09:42:52;;;;;;;3.40;2.30;;;20.00;54.30;;;;;;4983707;28;20429;-80
2021/09/14 09:45:19;;;;;;;2.70;1.50;;;19.90;54.80;;;;;;4984953;28;20039;-79
2021/09/14 09:47:49;;;;;;;3.78;1.35;;;19.90;54.50;;;;;;4984323;28;20038;-80
2021/09/14 09:50:15;;;;;;;4.63;1.20;;;19.90;54.60;;;;;;4990948;28;20034;-80
2021/09/14 09:52:45;;;;;;;1.88;0.93;;;19.90;54.80;;;;;;4992199;28;20031;-80
2021/09/14 09:55:12;;;;;;;1.85;1.00;;;19.90;54.90;;;;;;4994425;28;20038;-80
2021/09/14 09:57:38;;;;;;;2.45;0.80;;;19.90;55.30;;;;;;4988592;28;20034;-80
2021/09/14 10:00:09;;;;;;;2.90;0.82;;;19.90;54.90;;;;;;4994827;28;20092;-80
2021/09/14 10:02:53;;;;;;;1.77;0.80;;;19.90;54.60;;;;;;4993408;28;20496;-80
2021/09/14 10:05:25;;;;;;;2.95;0.65;;;19.80;54.20;;;;;;4987387;28;20030;-81
2021/09/14 10:07:51;;;;;;;1.00;0.50;;;19.70;54.10;;;;;;4975606;28;20045;-80
2021/09/14 10:10:17;;;;;;;2.30;0.40;;;19.70;54.20;;;;;;4991585;28;20066;-80
2021/09/14 10:12:43;;;;;;;2.05;0.80;;;19.70;54.30;;;;;;4992889;28;20065;-80
2021/09/14 10:15:11;;;;;;;1.08;0.70;;;19.70;54.80;;;;;;4993604;28;20038;-80
2021/09/14 10:17:55;;;;;;;3.80;0.60;;;19.70;54.90;;;;;;4969692;28;20041;-79
2021/09/14 10:20:24;;;;;;;2.17;0.70;;;19.70;55.70;;;;;;4991981;28;20421;-80
2021/09/14 10:23:18;;;;;;;2.67;0.77;;;19.80;55.50;;;;;;4970860;28;20416;-80
2021/09/14 10:25:49;;;;;;;3.35;0.88;;;19.70;55.30;;;;;;4984201;28;20046;-79
2021/09/14 10:28:16;;;;;;;1.85;0.70;;;19.70;55.40;;;;;;4984821;28;20034;-80
2021/09/14 10:30:44;;;;;;;2.53;0.68;;;19.70;54.90;;;;;;5004205;28;20035;-80
2021/09/14 10:33:39;;;;;;;2.15;0.77;;;19.70;54.80;;;;;;4980032;28;20034;-80
2021/09/14 10:36:13;;;;;;;2.13;0.77;;;19.70;55.10;;;;;;4985014;28;20046;-81
2021/09/14 10:38:49;;;;;;;4.03;0.80;;;19.60;54.70;;;;;;4992872;28;20027;-80
2021/09/14 10:41:15;;;;;;;;;;;19.60;54.90;;;;;;4994484;28;20372;-80
2021/09/14 10:43:52;;;;;;;1.48;0.60;;;19.60;54.70;;;;;;4982518;28;19913;-81
2021/09/14 10:46:22;;;;;;;5.78;0.93;;;19.50;55.00;;;;;;4981850;28;20461;-76
2021/09/14 10:48:52;;;;;;;2.65;0.73;;;19.50;55.30;;;;;;4983935;28;20034;-84
2021/09/14 10:51:19;;;;;;;3.42;0.70;;;19.50;57.10;;;;;;4985814;28;20026;-83
2021/09/14 10:53:55;;;;;;;4.22;0.80;;;19.60;59.80;;;;;;4980613;28;20409;-83
2021/09/14 10:56:23;;;;;;;3.28;0.65;;;19.80;60.90;;;;;;4982855;28;20042;-83
2021/09/14 10:58:49;;;;;;;2.75;0.85;;;20.00;61.10;;;;;;4983878;28;20030;-82
2021/09/14 11:01:23;;;;;;;2.55;0.70;;;20.10;61.20;;;;;;4981143;28;20076;-83
2021/09/14 11:04:09;;;;;;;3.15;0.70;;;20.20;61.50;;;;;;4981996;28;20533;-81
2021/09/14 11:06:36;;;;;;;2.95;0.65;;;20.30;61.10;;;;;;4982580;28;20084;-81
2021/09/14 11:09:06;;;;;;;9.93;0.80;;;20.40;61.50;;;;;;4987914;28;20030;-81
2021/09/14 11:11:33;;;;;;;3.55;0.80;;;20.50;61.60;;;;;;4990077;28;20034;-80
2021/09/14 11:13:59;;;;;;;12.65;1.75;;;20.70;62.10;;;;;;4991619;28;20077;-82
2021/09/14 11:16:26;;;;;;;6.80;0.90;;;20.70;61.60;;;;;;4974246;28;20042;-83
2021/09/14 11:18:58;;;;;;;1.67;0.82;;;20.70;61.60;;;;;;4995705;28;20073;-83
2021/09/14 11:21:24;;;;;;;2.03;0.50;;;20.70;61.70;;;;;;4996650;28;20096;-80
2021/09/14 11:23:50;;;;;;;3.08;0.77;;;20.60;61.80;;;;;;4987902;28;20424;-81
2021/09/14 11:26:19;;;;;;;4.28;0.90;;;20.60;61.90;;;;;;4991301;28;20031;-82
2021/09/14 11:28:59;;;;;;;1.90;0.90;;;20.50;62.30;;;;;;4984172;28;20043;-81
2021/09/14 11:31:30;;;;;;;7.30;1.45;;;20.50;62.50;;;;;;4992486;28;20405;-82
2021/09/14 11:33:57;;;;;;;8.52;1.60;;;20.50;62.60;;;;;;4990089;28;20065;-81
2021/09/14 11:36:25;;;;;;;3.47;1.00;;;20.50;62.90;;;;;;4990846;28;20168;-81
2021/09/14 11:38:59;;;;;;;2.63;1.25;;;20.50;61.90;;;;;;4992616;28;20038;-79
2021/09/14 11:41:34;;;;;;;3.25;0.88;;;20.50;60.60;;;;;;4986856;28;20047;-80
2021/09/14 11:44:01;;;;;;;4.13;1.25;;;20.50;60.40;;;;;;4987735;28;20034;-81
2021/09/14 11:46:27;;;;;;;4.60;1.35;;;20.40;60.10;;;;;;4990739;28;20038;-80
2021/09/14 11:49:07;;;;;;;2.90;0.80;;;20.40;60.40;;;;;;4991371;28;20366;-80
2021/09/14 11:51:41;;;;;;;3.65;1.20;;;20.40;61.50;;;;;;4991259;28;20038;-80
2021/09/14 11:54:15;;;;;;;6.28;1.10;;;20.40;60.60;;;;;;4988963;28;20030;-80
2021/09/14 11:56:42;;;;;;;10.77;2.15;;;20.30;60.80;;;;;;4990089;28;20541;-80
2021/09/14 11:59:17;;;;;;;7.00;1.90;;;20.30;60.40;;;;;;4991343;28;20053;-80
2021/09/14 12:01:44;;;;;;;;;;;20.30;60.60;;;;;;4991013;28;20030;-80
2021/09/14 12:04:17;;;;;;;10.27;1.70;;;20.30;60.90;;;;;;4989299;28;20337;-80
2021/09/14 12:06:50;;;;;;;19.05;1.77;;;20.30;61.10;;;;;;4986253;28;20034;-81
2021/09/14 12:09:18;;;;;;;5.53;1.80;;;20.30;60.80;;;;;;4993351;28;20030;-80
2021/09/14 12:11:45;;;;;;;8.50;2.10;;;20.30;61.20;;;;;;4991246;28;20120;-80
2021/09/14 12:14:17;;;;;;;4.75;1.40;;;20.30;61.00;;;;;;4990353;28;20093;-80
2021/09/14 12:16:44;;;;;;;7.07;1.67;;;20.30;60.80;;;;;;4991349;28;20046;-80
2021/09/14 12:19:12;;;;;;;6.35;1.75;;;20.30;60.40;;;;;;4991271;28;20038;-83
2021/09/14 12:21:39;;;;;;;4.53;1.15;;;20.20;60.10;;;;;;4989676;28;20599;-82
2021/09/14 12:24:05;;;;;;;6.00;1.42;;;20.30;59.50;;;;;;4989243;28;20512;-79
2021/09/14 12:26:42;;;;;;;6.88;1.42;;;20.30;59.40;;;;;;4990241;28;20038;-79
2021/09/14 12:29:10;;;;;;;6.28;1.83;;;20.30;59.40;;;;;;4990725;28;20422;-80
2021/09/14 12:31:37;;;;;;;7.00;1.70;;;20.40;59.10;;;;;;4990238;28;20077;-82
2021/09/14 12:34:02;;;;;;;8.05;1.90;;;20.40;58.70;;;;;;4992339;28;20490;-82
2021/09/14 12:36:28;;;;;;;9.75;2.50;;;20.40;58.00;;;;;;4985767;28;20039;-79
2021/09/14 12:38:55;;;;;;;6.60;1.23;;;20.40;58.50;;;;;;4989296;28;20042;-79
2021/09/14 12:41:21;;;;;;;8.38;1.40;;;20.40;58.00;;;;;;4990114;28;20533;-81
2021/09/14 12:43:48;;;;;;;6.65;1.38;;;20.40;57.70;;;;;;4992880;28;20038;-79
2021/09/14 12:46:16;;;;;;;7.97;1.77;;;20.40;58.30;;;;;;4992800;28;20038;-80
2021/09/14 12:48:42;;;;;;;6.75;2.13;;;20.40;57.90;;;;;;4983187;28;20126;-77
2021/09/14 12:51:09;;;;;;;6.35;2.00;;;20.40;57.80;;;;;;4989827;28;20120;-78
2021/09/14 12:53:35;;;;;;;7.75;2.35;;;20.40;57.80;;;;;;4988559;28;20034;-81
2021/09/14 12:56:01;;;;;;;3.03;1.10;;;20.40;57.20;;;;;;4992060;28;20058;-83
2021/09/14 12:58:27;;;;;;;5.00;1.02;;;20.40;57.10;;;;;;4985467;28;20129;-79
2021/09/14 13:00:53;;;;;;;6.28;1.40;;;20.40;57.00;;;;;;4991388;28;20447;-78
2021/09/14 13:03:19;;;;;;;4.50;1.52;;;20.40;57.00;;;;;;4988661;28;20034;-78
2021/09/14 13:05:45;;;;;;;6.53;1.63;;;20.40;56.70;;;;;;4990878;28;20039;-78
2021/09/14 13:08:11;;;;;;;5.78;1.85;;;20.40;56.80;;;;;;4990705;28;20026;-78
2021/09/14 13:10:37;;;;;;;7.53;1.70;;;20.30;56.40;;;;;;4995978;28;20035;-79
